createdAt,value
2022-11-16T00:00:05.637Z,91.20
2022-11-16T00:00:41.997Z,91.20
2022-11-16T00:01:17.987Z,91.20
2022-11-16T00:01:50.288Z,91.20
2022-11-16T00:02:24.040Z,91.00
2022-11-16T00:02:56.550Z,91.20
2022-11-16T00:03:31.162Z,91.20
2022-11-16T00:04:05.565Z,91.20
2022-11-16T00:04:39.726Z,91.20
2022-11-16T00:05:12.936Z,91.20
2022-11-16T00:05:45.588Z,91.10
2022-11-16T00:06:19.060Z,91.20
2022-11-16T00:06:54.359Z,91.20
2022-11-16T00:07:26.920Z,91.10
2022-11-16T00:08:00.519Z,91.20
2022-11-16T00:08:35.495Z,91.10
2022-11-16T00:09:23.317Z,91.10
2022-11-16T00:09:57.962Z,91.20
2022-11-16T00:10:30.442Z,91.20
2022-11-16T00:11:08.913Z,91.20
2022-11-16T00:11:43.006Z,91.20
2022-11-16T00:12:15.201Z,91.30
2022-11-16T00:12:47.635Z,91.20
2022-11-16T00:13:21.417Z,91.30
2022-11-16T00:13:54.465Z,91.30
2022-11-16T00:14:29.228Z,91.30
2022-11-16T00:15:33.988Z,91.10
2022-11-16T00:16:08.658Z,91.20
2022-11-16T00:16:42.725Z,91.20
2022-11-16T00:17:18.479Z,91.20
2022-11-16T00:17:52.780Z,91.10
2022-11-16T00:18:25.742Z,91.30
2022-11-16T00:18:59.790Z,91.30
2022-11-16T00:19:32.796Z,91.30
2022-11-16T00:20:06.528Z,91.30
2022-11-16T00:20:39.466Z,91.30
2022-11-16T00:21:17.112Z,91.20
2022-11-16T00:21:51.102Z,91.20
2022-11-16T00:22:23.741Z,91.20
2022-11-16T00:22:56.231Z,91.30
2022-11-16T00:23:28.821Z,91.30
2022-11-16T00:24:02.161Z,91.30
2022-11-16T00:24:34.374Z,91.10
2022-11-16T00:25:07.168Z,91.30
2022-11-16T00:25:39.570Z,91.30
2022-11-16T00:26:13.072Z,91.30
2022-11-16T00:26:46.024Z,91.30
2022-11-16T00:27:21.308Z,91.40
2022-11-16T00:27:55.446Z,91.30
2022-11-16T00:28:28.819Z,91.30
2022-11-16T00:29:01.108Z,91.30
2022-11-16T00:29:33.966Z,91.30
2022-11-16T00:30:10.752Z,91.30
2022-11-16T00:30:44.771Z,91.30
2022-11-16T00:31:17.150Z,91.30
2022-11-16T00:31:50.652Z,91.30
2022-11-16T00:32:23.583Z,91.30
2022-11-16T00:32:59.880Z,91.10
2022-11-16T00:33:32.440Z,91.40
2022-11-16T00:34:04.668Z,91.30
2022-11-16T00:34:36.831Z,91.30
2022-11-16T00:35:12.101Z,91.30
2022-11-16T00:35:45.153Z,91.30
2022-11-16T00:36:17.868Z,91.30
2022-11-16T00:36:51.762Z,91.30
2022-11-16T00:37:24.785Z,91.30
2022-11-16T00:37:57.885Z,91.30
2022-11-16T00:38:31.198Z,91.30
2022-11-16T00:39:04.899Z,91.40
2022-11-16T00:39:38.591Z,91.30
2022-11-16T00:40:11.638Z,91.30
2022-11-16T00:40:44.464Z,91.30
2022-11-16T00:41:16.879Z,91.40
2022-11-16T00:41:49.410Z,91.40
2022-11-16T00:42:31.946Z,91.30
2022-11-16T00:43:04.740Z,91.30
2022-11-16T00:43:46.887Z,91.30
2022-11-16T00:44:51.921Z,91.10
2022-11-16T00:45:24.116Z,91.40
2022-11-16T00:45:57.572Z,91.40
2022-11-16T00:46:29.828Z,91.40
2022-11-16T00:47:02.900Z,91.80
2022-11-16T00:47:39.469Z,91.30
2022-11-16T00:48:13.996Z,91.10
2022-11-16T00:48:47.765Z,91.40
2022-11-16T00:49:20.064Z,91.40
2022-11-16T00:49:52.341Z,91.40
2022-11-16T00:50:24.532Z,91.30
2022-11-16T00:50:58.536Z,91.40
2022-11-16T00:51:30.881Z,91.40
2022-11-16T00:52:03.639Z,91.40
2022-11-16T00:52:36.594Z,91.70
2022-11-16T00:53:15.197Z,91.60
2022-11-16T00:53:48.561Z,91.40
2022-11-16T00:54:22.715Z,91.20
2022-11-16T00:54:55.801Z,91.40
2022-11-16T00:55:28.932Z,91.40
2022-11-16T00:56:01.956Z,91.40
2022-11-16T00:56:37.208Z,91.20
2022-11-16T00:57:10.557Z,91.40
2022-11-16T00:57:46.493Z,91.40
2022-11-16T00:58:19.913Z,91.40
2022-11-16T00:59:30.235Z,91.20
2022-11-16T01:00:05.218Z,91.40
2022-11-16T01:00:43.015Z,91.40
2022-11-16T01:01:16.162Z,91.30
2022-11-16T01:01:48.636Z,91.40
2022-11-16T01:02:22.832Z,91.40
2022-11-16T01:02:55.565Z,91.40
2022-11-16T01:03:27.792Z,91.50
2022-11-16T01:04:00.000Z,91.50
2022-11-16T01:04:32.266Z,91.50
2022-11-16T01:05:06.329Z,91.50
2022-11-16T01:05:41.161Z,91.40
2022-11-16T01:06:16.127Z,91.50
2022-11-16T01:06:50.221Z,91.50
2022-11-16T01:07:25.345Z,91.40
2022-11-16T01:07:58.549Z,91.50
2022-11-16T01:08:31.679Z,91.50
2022-11-16T01:09:06.322Z,91.50
2022-11-16T01:09:38.448Z,91.30
2022-11-16T01:10:15.524Z,91.30
2022-11-16T01:10:47.967Z,91.50
2022-11-16T01:11:39.587Z,91.50
2022-11-16T01:12:12.905Z,91.50
2022-11-16T01:12:46.979Z,91.30
2022-11-16T01:13:19.487Z,91.50
2022-11-16T01:13:51.402Z,91.50
2022-11-16T01:14:23.302Z,91.50
2022-11-16T01:14:55.203Z,91.30
2022-11-16T01:15:27.961Z,91.50
2022-11-16T01:15:59.781Z,91.70
2022-11-16T01:16:32.895Z,91.80
2022-11-16T01:17:04.920Z,91.50
2022-11-16T01:17:38.553Z,91.30
2022-11-16T01:18:10.314Z,91.50
2022-11-16T01:18:42.989Z,91.30
2022-11-16T01:19:14.728Z,91.70
2022-11-16T01:19:46.589Z,91.30
2022-11-16T01:20:21.858Z,91.50
2022-11-16T01:20:54.261Z,91.30
2022-11-16T01:21:26.146Z,91.80
2022-11-16T01:21:58.328Z,91.30
2022-11-16T01:22:30.100Z,91.30
2022-11-16T01:23:01.840Z,91.20
2022-11-16T01:23:33.749Z,91.80
2022-11-16T01:24:06.055Z,91.50
2022-11-16T01:24:37.921Z,91.50
2022-11-16T01:25:11.044Z,91.30
2022-11-16T01:25:43.051Z,91.50
2022-11-16T01:26:14.887Z,91.30
2022-11-16T01:26:47.549Z,91.50
2022-11-16T01:27:19.434Z,91.50
2022-11-16T01:27:51.232Z,91.50
2022-11-16T01:28:31.304Z,91.60
2022-11-16T01:29:03.973Z,91.30
2022-11-16T01:29:40.019Z,91.30
2022-11-16T01:30:13.609Z,91.50
2022-11-16T01:30:49.974Z,91.50
2022-11-16T01:31:21.845Z,91.30
2022-11-16T01:31:57.029Z,91.50
2022-11-16T01:32:28.773Z,91.50
2022-11-16T01:33:00.729Z,91.50
2022-11-16T01:33:32.565Z,91.50
2022-11-16T01:34:04.428Z,91.30
2022-11-16T01:34:36.393Z,91.30
2022-11-16T01:35:18.900Z,91.30
2022-11-16T01:35:51.688Z,91.60
2022-11-16T01:36:24.064Z,92.30
2022-11-16T01:36:55.863Z,92.10
2022-11-16T01:37:30.063Z,91.30
2022-11-16T01:38:01.837Z,91.30
2022-11-16T01:38:34.005Z,91.50
2022-11-16T01:39:06.047Z,91.30
2022-11-16T01:39:49.884Z,91.60
2022-11-16T01:40:21.800Z,91.90
2022-11-16T01:40:53.598Z,91.60
2022-11-16T01:41:26.201Z,91.40
2022-11-16T01:42:30.240Z,91.60
2022-11-16T01:43:19.774Z,91.40
2022-11-16T01:43:58.930Z,91.60
2022-11-16T01:44:35.502Z,91.50
2022-11-16T01:45:44.694Z,91.60
2022-11-16T01:46:19.140Z,91.60
2022-11-16T01:46:50.962Z,91.60
2022-11-16T01:47:22.778Z,91.40
2022-11-16T01:47:55.431Z,91.40
2022-11-16T01:48:32.040Z,91.60
2022-11-16T01:49:16.704Z,91.60
2022-11-16T01:49:57.041Z,91.60
2022-11-16T01:50:35.816Z,91.40
2022-11-16T01:51:09.738Z,91.60
2022-11-16T01:51:47.449Z,91.60
2022-11-16T01:52:30.823Z,91.60
2022-11-16T01:53:06.169Z,91.60
2022-11-16T01:53:46.682Z,91.90
2022-11-16T01:54:19.435Z,91.60
2022-11-16T01:55:04.459Z,92.50
2022-11-16T01:55:50.594Z,92.10
2022-11-16T01:56:47.303Z,92.50
2022-11-16T01:57:38.443Z,91.60
2022-11-16T01:58:18.984Z,91.40
2022-11-16T01:58:57.217Z,91.60
2022-11-16T01:59:32.979Z,91.70
2022-11-16T02:00:09.592Z,91.70
2022-11-16T02:01:02.281Z,91.70
2022-11-16T02:01:46.296Z,91.70
2022-11-16T02:02:19.439Z,91.70
2022-11-16T02:02:52.553Z,91.70
2022-11-16T02:03:44.967Z,91.70
2022-11-16T02:04:17.175Z,91.40
2022-11-16T02:04:58.267Z,91.40
2022-11-16T02:06:07.013Z,91.70
2022-11-16T02:07:00.795Z,91.60
2022-11-16T02:08:00.404Z,91.60
2022-11-16T02:09:14.411Z,91.50
2022-11-16T02:10:20.847Z,91.70
2022-11-16T02:11:09.692Z,91.70
2022-11-16T02:12:01.666Z,91.80
2022-11-16T02:13:16.388Z,91.80
2022-11-16T02:14:08.626Z,91.70
2022-11-16T02:15:03.272Z,91.70
2022-11-16T02:15:36.079Z,91.70
2022-11-16T02:16:57.593Z,91.80
2022-11-16T02:18:12.533Z,91.80
2022-11-16T02:19:07.829Z,91.70
2022-11-16T02:19:43.814Z,91.70
2022-11-16T02:20:42.329Z,91.70
2022-11-16T02:21:31.296Z,91.80
2022-11-16T02:22:39.086Z,91.80
2022-11-16T02:23:23.488Z,91.80
2022-11-16T02:24:26.061Z,91.60
2022-11-16T02:25:12.080Z,91.80
2022-11-16T02:26:05.844Z,91.80
2022-11-16T02:27:00.242Z,91.80
2022-11-16T02:27:53.425Z,91.80
2022-11-16T02:28:51.556Z,91.70
2022-11-16T02:29:34.196Z,91.70
2022-11-16T02:30:08.478Z,91.70
2022-11-16T02:30:52.634Z,91.80
2022-11-16T02:31:32.570Z,91.70
2022-11-16T02:32:16.616Z,91.80
2022-11-16T02:33:10.976Z,91.60
2022-11-16T02:33:46.373Z,91.80
2022-11-16T02:34:24.662Z,91.70
2022-11-16T02:35:05.955Z,91.80
2022-11-16T02:35:48.743Z,91.80
2022-11-16T02:36:25.939Z,91.70
2022-11-16T02:37:07.102Z,91.80
2022-11-16T02:37:47.978Z,91.80
2022-11-16T02:38:30.331Z,91.60
2022-11-16T02:39:15.008Z,91.80
2022-11-16T02:39:52.631Z,91.80
2022-11-16T02:40:32.193Z,91.80
2022-11-16T02:41:11.343Z,91.80
2022-11-16T02:41:48.308Z,91.80
2022-11-16T02:42:32.849Z,91.80
2022-11-16T02:43:09.642Z,91.80
2022-11-16T02:43:46.020Z,91.80
2022-11-16T02:44:24.393Z,91.80
2022-11-16T02:45:01.015Z,91.80
2022-11-16T02:45:39.239Z,91.70
2022-11-16T02:46:26.088Z,91.80
2022-11-16T02:47:05.212Z,91.90
2022-11-16T02:47:41.328Z,91.80
2022-11-16T02:48:29.907Z,90.80
2022-11-16T02:49:08.769Z,91.80
2022-11-16T02:49:47.789Z,91.90
2022-11-16T02:50:25.925Z,91.80
2022-11-16T02:50:59.431Z,91.90
2022-11-16T02:51:37.005Z,91.90
2022-11-16T02:52:13.292Z,91.90
2022-11-16T02:52:46.425Z,91.90
2022-11-16T02:53:25.258Z,91.90
2022-11-16T02:54:08.586Z,91.90
2022-11-16T02:54:43.115Z,91.90
2022-11-16T02:55:18.681Z,91.90
2022-11-16T02:55:51.836Z,92.00
2022-11-16T02:56:25.007Z,91.70
2022-11-16T02:57:04.456Z,91.90
2022-11-16T02:57:54.129Z,91.90
2022-11-16T02:58:28.144Z,91.90
2022-11-16T02:59:00.648Z,91.90
2022-11-16T02:59:50.778Z,91.90
2022-11-16T03:00:47.959Z,91.70
2022-11-16T03:01:35.617Z,91.90
2022-11-16T03:02:17.197Z,91.90
2022-11-16T03:03:40.496Z,91.90
2022-11-16T03:04:38.561Z,91.80
2022-11-16T03:05:31.887Z,91.80
2022-11-16T03:06:21.849Z,91.80
2022-11-16T03:06:58.650Z,91.80
2022-11-16T03:07:56.529Z,91.80
2022-11-16T03:08:38.095Z,91.80
2022-11-16T03:09:20.871Z,91.60
2022-11-16T03:09:56.705Z,91.80
2022-11-16T03:10:49.315Z,91.80
2022-11-16T03:11:40.156Z,90.70
2022-11-16T03:12:19.015Z,91.80
2022-11-16T03:12:51.668Z,91.90
2022-11-16T03:13:31.130Z,90.80
2022-11-16T03:14:11.906Z,91.80
2022-11-16T03:14:48.994Z,91.60
2022-11-16T03:15:24.137Z,91.70
2022-11-16T03:16:00.617Z,91.70
2022-11-16T03:16:46.532Z,91.30
2022-11-16T03:17:51.046Z,91.80
2022-11-16T03:18:29.025Z,91.80
2022-11-16T03:19:12.192Z,91.80
2022-11-16T03:20:08.061Z,91.80
2022-11-16T03:20:44.172Z,91.80
2022-11-16T03:21:30.657Z,91.80
2022-11-16T03:22:21.570Z,91.80
2022-11-16T03:23:00.721Z,91.80
2022-11-16T03:23:34.872Z,91.80
2022-11-16T03:24:08.731Z,91.70
2022-11-16T03:24:42.685Z,91.50
2022-11-16T03:25:21.887Z,91.80
2022-11-16T03:25:58.340Z,91.50
2022-11-16T03:27:03.621Z,91.80
2022-11-16T03:27:45.023Z,91.70
2022-11-16T03:28:23.760Z,91.80
2022-11-16T03:29:13.263Z,91.70
2022-11-16T03:30:08.421Z,91.50
2022-11-16T03:31:00.713Z,91.70
2022-11-16T03:31:47.528Z,91.70
2022-11-16T03:32:34.937Z,91.80
2022-11-16T03:33:30.501Z,91.70
2022-11-16T03:34:11.290Z,91.70
2022-11-16T03:35:13.103Z,91.70
2022-11-16T03:35:59.596Z,91.70
2022-11-16T03:36:39.985Z,91.70
2022-11-16T03:37:14.191Z,91.70
2022-11-16T03:37:50.511Z,91.70
2022-11-16T03:38:26.294Z,91.70
2022-11-16T03:39:08.607Z,91.70
2022-11-16T03:39:44.562Z,91.60
2022-11-16T03:40:19.378Z,91.70
2022-11-16T03:40:59.905Z,91.60
2022-11-16T03:41:35.903Z,91.60
2022-11-16T03:42:17.476Z,91.70
2022-11-16T03:42:53.479Z,91.60
2022-11-16T03:43:28.052Z,91.70
2022-11-16T03:44:05.279Z,91.40
2022-11-16T03:44:39.672Z,91.40
2022-11-16T03:45:15.469Z,91.60
2022-11-16T03:45:48.210Z,91.60
2022-11-16T03:46:21.078Z,91.50
2022-11-16T03:46:53.456Z,91.50
2022-11-16T03:47:25.815Z,91.60
2022-11-16T03:47:58.639Z,91.70
2022-11-16T03:48:40.618Z,91.70
2022-11-16T03:49:22.548Z,91.70
2022-11-16T03:49:56.780Z,91.70
2022-11-16T03:50:29.908Z,91.70
2022-11-16T03:51:07.290Z,91.60
2022-11-16T03:51:39.884Z,91.70
2022-11-16T03:52:12.761Z,90.50
2022-11-16T03:52:44.811Z,91.70
2022-11-16T03:53:18.367Z,92.30
2022-11-16T03:53:50.169Z,91.40
2022-11-16T03:54:22.793Z,91.40
2022-11-16T03:54:54.597Z,92.10
2022-11-16T03:55:26.406Z,91.40
2022-11-16T03:55:58.726Z,91.80
2022-11-16T03:56:31.960Z,92.20
2022-11-16T03:57:03.944Z,91.40
2022-11-16T03:57:35.695Z,92.00
2022-11-16T03:58:08.095Z,91.40
2022-11-16T03:58:39.992Z,91.60
2022-11-16T03:59:11.828Z,92.70
2022-11-16T03:59:44.106Z,91.70
2022-11-16T04:00:16.201Z,91.80
2022-11-16T04:00:49.012Z,91.40
2022-11-16T04:01:20.820Z,91.70
2022-11-16T04:01:53.476Z,91.40
2022-11-16T04:02:25.325Z,92.10
2022-11-16T04:03:00.498Z,91.60
2022-11-16T04:03:32.325Z,91.40
2022-11-16T04:04:04.617Z,91.40
2022-11-16T04:04:54.889Z,91.70
2022-11-16T04:06:37.161Z,91.40
2022-11-16T04:08:20.056Z,91.40
2022-11-16T04:09:10.779Z,92.20
2022-11-16T04:10:02.423Z,91.40
2022-11-16T04:10:54.534Z,91.70
2022-11-16T04:11:45.119Z,92.40
2022-11-16T04:12:35.813Z,91.70
2022-11-16T04:13:31.398Z,91.70
2022-11-16T04:14:22.233Z,91.50
2022-11-16T04:15:12.831Z,91.70
2022-11-16T04:16:03.333Z,91.70
2022-11-16T04:16:53.925Z,91.70
2022-11-16T04:17:45.644Z,91.70
2022-11-16T04:18:36.998Z,91.70
2022-11-16T04:19:28.302Z,91.90
2022-11-16T04:20:18.804Z,92.60
2022-11-16T04:21:09.439Z,91.80
2022-11-16T04:22:07.660Z,91.80
2022-11-16T04:23:08.316Z,92.10
2022-11-16T04:23:58.964Z,91.90
2022-11-16T04:24:36.773Z,92.80
2022-11-16T04:25:14.253Z,91.80
2022-11-16T04:25:50.062Z,91.50
2022-11-16T04:26:42.955Z,91.60
2022-11-16T04:27:35.400Z,91.70
2022-11-16T04:28:14.399Z,92.40
2022-11-16T04:28:50.497Z,91.90
2022-11-16T04:29:22.341Z,91.80
2022-11-16T04:29:56.904Z,91.40
2022-11-16T04:30:50.098Z,91.70
2022-11-16T04:31:40.773Z,91.40
2022-11-16T04:32:35.012Z,91.70
2022-11-16T04:33:25.618Z,91.80
2022-11-16T04:34:16.162Z,91.60
2022-11-16T04:35:12.041Z,92.50
2022-11-16T04:36:02.727Z,92.00
2022-11-16T04:36:53.283Z,91.40
2022-11-16T04:37:43.921Z,91.60
2022-11-16T04:38:16.205Z,91.70
2022-11-16T04:38:47.942Z,91.70
2022-11-16T04:39:20.025Z,91.30
2022-11-16T04:39:52.101Z,91.70
2022-11-16T04:40:27.902Z,91.70
2022-11-16T04:41:00.009Z,91.70
2022-11-16T04:41:51.391Z,91.40
2022-11-16T04:42:24.081Z,91.60
2022-11-16T04:42:59.497Z,91.50
2022-11-16T04:43:33.673Z,91.70
2022-11-16T04:44:05.533Z,91.50
2022-11-16T04:44:57.659Z,91.50
2022-11-16T04:46:05.937Z,91.50
2022-11-16T04:47:02.268Z,91.80
2022-11-16T04:47:34.044Z,92.30
2022-11-16T04:48:08.037Z,92.30
2022-11-16T04:48:41.172Z,91.60
2022-11-16T04:49:14.025Z,91.40
2022-11-16T04:49:45.792Z,91.70
2022-11-16T04:50:19.306Z,91.40
2022-11-16T04:50:51.101Z,91.60
2022-11-16T04:51:23.198Z,91.40
2022-11-16T04:51:55.050Z,91.50
2022-11-16T04:52:27.202Z,91.50
2022-11-16T04:53:00.274Z,91.50
2022-11-16T04:53:33.184Z,91.40
2022-11-16T04:54:15.780Z,91.70
2022-11-16T04:54:47.664Z,91.70
2022-11-16T04:55:20.446Z,92.20
2022-11-16T04:55:57.964Z,92.10
2022-11-16T04:56:32.428Z,91.50
2022-11-16T04:57:04.282Z,91.40
2022-11-16T04:57:36.078Z,91.40
2022-11-16T04:58:08.862Z,92.60
2022-11-16T04:58:40.623Z,91.50
2022-11-16T04:59:13.800Z,91.70
2022-11-16T04:59:45.578Z,91.50
2022-11-16T05:00:18.126Z,91.70
2022-11-16T05:00:49.926Z,91.70
2022-11-16T05:01:42.019Z,91.70
2022-11-16T05:02:15.104Z,91.80
2022-11-16T05:03:01.314Z,91.50
2022-11-16T05:03:34.368Z,91.50
2022-11-16T05:04:06.487Z,92.20
2022-11-16T05:04:40.513Z,91.70
2022-11-16T05:05:12.814Z,91.90
2022-11-16T05:05:49.845Z,91.50
2022-11-16T05:06:21.675Z,91.50
2022-11-16T05:06:53.615Z,91.50
2022-11-16T05:07:26.533Z,92.10
2022-11-16T05:08:05.712Z,91.90
2022-11-16T05:08:38.256Z,91.50
2022-11-16T05:09:10.373Z,91.40
2022-11-16T05:09:47.234Z,91.40
2022-11-16T05:10:19.568Z,91.70
2022-11-16T05:10:51.981Z,92.30
2022-11-16T05:11:24.395Z,91.70
2022-11-16T05:11:56.544Z,91.50
2022-11-16T05:12:29.067Z,91.50
2022-11-16T05:13:04.193Z,91.50
2022-11-16T05:13:35.984Z,91.50
2022-11-16T05:14:10.148Z,91.70
2022-11-16T05:14:43.091Z,91.70
2022-11-16T05:15:17.509Z,91.50
2022-11-16T05:15:50.095Z,91.50
2022-11-16T05:16:22.709Z,92.40
2022-11-16T05:16:54.761Z,91.70
2022-11-16T05:17:28.268Z,91.50
2022-11-16T05:18:01.881Z,91.80
2022-11-16T05:18:35.437Z,91.70
2022-11-16T05:19:26.966Z,91.70
2022-11-16T05:20:17.639Z,91.70
2022-11-16T05:21:00.555Z,91.70
2022-11-16T05:21:35.001Z,91.80
2022-11-16T05:22:06.854Z,92.00
2022-11-16T05:22:39.480Z,91.70
2022-11-16T05:23:31.430Z,91.50
2022-11-16T05:24:27.131Z,91.70
2022-11-16T05:25:00.285Z,91.70
2022-11-16T05:25:36.470Z,91.90
2022-11-16T05:26:11.208Z,91.50
2022-11-16T05:26:43.468Z,91.50
2022-11-16T05:27:17.409Z,91.80
2022-11-16T05:27:49.434Z,91.70
2022-11-16T05:28:21.288Z,91.70
2022-11-16T05:28:53.116Z,91.40
2022-11-16T05:29:26.541Z,91.40
2022-11-16T05:29:59.050Z,91.40
2022-11-16T05:30:30.809Z,91.70
2022-11-16T05:31:04.610Z,92.30
2022-11-16T05:31:40.467Z,91.70
2022-11-16T05:32:13.634Z,91.50
2022-11-16T05:32:45.494Z,91.50
2022-11-16T05:33:18.701Z,91.80
2022-11-16T05:33:50.464Z,91.70
2022-11-16T05:34:23.746Z,92.30
2022-11-16T05:34:55.548Z,92.00
2022-11-16T05:35:28.731Z,92.00
2022-11-16T05:36:00.472Z,91.50
2022-11-16T05:36:34.252Z,91.70
2022-11-16T05:37:06.894Z,92.00
2022-11-16T05:37:38.764Z,91.50
2022-11-16T05:38:10.536Z,92.30
2022-11-16T05:38:46.779Z,91.50
2022-11-16T05:39:19.777Z,91.50
2022-11-16T05:39:54.802Z,91.50
2022-11-16T05:40:32.829Z,91.90
2022-11-16T05:41:05.496Z,91.60
2022-11-16T05:41:37.728Z,91.50
2022-11-16T05:42:10.276Z,91.80
2022-11-16T05:42:42.260Z,91.90
2022-11-16T05:43:14.318Z,91.80
2022-11-16T05:43:56.000Z,91.60
2022-11-16T05:44:28.089Z,91.80
2022-11-16T05:45:00.008Z,92.40
2022-11-16T05:45:31.814Z,91.60
2022-11-16T05:46:05.270Z,92.50
2022-11-16T05:46:38.261Z,91.80
2022-11-16T05:47:10.264Z,91.60
2022-11-16T05:47:42.653Z,91.80
2022-11-16T05:48:14.488Z,90.90
2022-11-16T05:48:46.453Z,91.60
2022-11-16T05:49:18.662Z,91.80
2022-11-16T05:49:50.627Z,91.50
2022-11-16T05:50:23.253Z,91.70
2022-11-16T05:51:07.932Z,92.10
2022-11-16T05:51:42.320Z,91.50
2022-11-16T05:52:14.121Z,92.10
2022-11-16T05:52:47.290Z,91.80
2022-11-16T05:53:19.033Z,91.60
2022-11-16T05:53:51.853Z,92.10
2022-11-16T05:54:26.978Z,91.60
2022-11-16T05:54:58.806Z,91.60
2022-11-16T05:55:31.757Z,92.00
2022-11-16T05:56:04.267Z,91.90
2022-11-16T05:56:39.699Z,91.90
2022-11-16T05:57:11.572Z,92.00
2022-11-16T05:57:43.885Z,91.60
2022-11-16T05:58:16.274Z,91.70
2022-11-16T05:58:48.055Z,91.60
2022-11-16T05:59:22.252Z,91.90
2022-11-16T05:59:57.289Z,91.90
2022-11-16T06:00:29.192Z,91.90
2022-11-16T06:01:00.954Z,91.70
2022-11-16T06:01:32.788Z,91.60
2022-11-16T06:02:04.767Z,91.90
2022-11-16T06:02:38.096Z,92.20
2022-11-16T06:03:10.034Z,92.00
2022-11-16T06:03:42.192Z,91.70
2022-11-16T06:04:14.757Z,91.60
2022-11-16T06:04:46.506Z,91.70
2022-11-16T06:05:18.222Z,91.90
2022-11-16T06:05:55.541Z,92.10
2022-11-16T06:06:29.305Z,92.00
2022-11-16T06:07:01.795Z,91.60
2022-11-16T06:07:37.510Z,92.10
2022-11-16T06:08:09.524Z,91.90
2022-11-16T06:08:41.340Z,91.70
2022-11-16T06:09:17.193Z,92.00
2022-11-16T06:09:48.993Z,92.80
2022-11-16T06:10:25.452Z,92.10
2022-11-16T06:11:05.533Z,92.00
2022-11-16T06:11:39.249Z,91.90
2022-11-16T06:12:11.875Z,92.20
2022-11-16T06:12:43.648Z,91.70
2022-11-16T06:13:15.471Z,92.70
2022-11-16T06:13:47.800Z,92.00
2022-11-16T06:14:19.652Z,91.70
2022-11-16T06:14:51.395Z,92.00
2022-11-16T06:15:23.253Z,91.70
2022-11-16T06:15:55.059Z,92.40
2022-11-16T06:16:27.759Z,91.70
2022-11-16T06:16:59.685Z,92.30
2022-11-16T06:17:33.715Z,91.70
2022-11-16T06:18:06.261Z,92.40
2022-11-16T06:18:44.355Z,91.70
2022-11-16T06:19:17.265Z,92.00
2022-11-16T06:19:49.008Z,91.90
2022-11-16T06:20:21.086Z,92.10
2022-11-16T06:20:52.920Z,92.20
2022-11-16T06:21:25.663Z,92.00
2022-11-16T06:21:58.518Z,92.10
2022-11-16T06:22:31.800Z,91.80
2022-11-16T06:23:03.964Z,92.40
2022-11-16T06:23:36.181Z,92.10
2022-11-16T06:24:09.395Z,92.10
2022-11-16T06:24:41.532Z,92.00
2022-11-16T06:25:13.342Z,91.70
2022-11-16T06:25:52.462Z,92.10
2022-11-16T06:26:24.210Z,92.40
2022-11-16T06:26:56.013Z,92.20
2022-11-16T06:27:27.805Z,92.00
2022-11-16T06:28:02.906Z,91.80
2022-11-16T06:28:37.574Z,92.00
2022-11-16T06:29:09.786Z,92.10
2022-11-16T06:29:41.574Z,92.40
2022-11-16T06:30:13.648Z,92.10
2022-11-16T06:30:45.460Z,92.10
2022-11-16T06:31:17.456Z,92.10
2022-11-16T06:31:50.176Z,92.00
2022-11-16T06:32:22.191Z,92.00
2022-11-16T06:32:53.953Z,92.10
2022-11-16T06:33:28.599Z,92.40
2022-11-16T06:34:04.135Z,92.10
2022-11-16T06:34:35.905Z,90.80
2022-11-16T06:35:08.159Z,92.10
2022-11-16T06:35:40.164Z,92.10
2022-11-16T06:36:12.905Z,92.10
2022-11-16T06:36:45.115Z,92.20
2022-11-16T06:37:18.792Z,91.90
2022-11-16T06:37:50.585Z,92.70
2022-11-16T06:38:23.323Z,92.20
2022-11-16T06:39:00.968Z,92.20
2022-11-16T06:39:34.596Z,92.40
2022-11-16T06:40:07.504Z,92.20
2022-11-16T06:40:42.030Z,92.10
2022-11-16T06:41:14.287Z,91.90
2022-11-16T06:41:49.922Z,92.10
2022-11-16T06:42:21.974Z,92.40
2022-11-16T06:42:54.000Z,92.10
2022-11-16T06:43:26.124Z,91.90
2022-11-16T06:43:58.457Z,92.20
2022-11-16T06:44:36.787Z,92.20
2022-11-16T06:45:09.917Z,92.10
2022-11-16T06:45:50.555Z,92.20
2022-11-16T06:46:24.456Z,92.20
2022-11-16T06:46:56.489Z,93.00
2022-11-16T06:47:28.790Z,92.20
2022-11-16T06:48:00.574Z,92.00
2022-11-16T06:48:33.699Z,92.20
2022-11-16T06:49:07.780Z,92.20
2022-11-16T06:49:41.385Z,92.20
2022-11-16T06:50:19.811Z,92.00
2022-11-16T06:50:53.501Z,92.20
2022-11-16T06:51:26.517Z,92.60
2022-11-16T06:51:58.281Z,92.20
2022-11-16T06:52:30.999Z,92.50
2022-11-16T06:53:03.119Z,92.10
2022-11-16T06:53:34.997Z,92.70
2022-11-16T06:54:07.434Z,92.00
2022-11-16T06:54:39.522Z,92.00
2022-11-16T06:55:11.331Z,92.80
2022-11-16T06:55:43.181Z,92.60
2022-11-16T06:56:16.322Z,92.60
2022-11-16T06:56:53.440Z,92.30
2022-11-16T06:57:25.971Z,92.00
2022-11-16T06:57:57.849Z,92.00
2022-11-16T06:58:32.097Z,92.40
2022-11-16T06:59:04.258Z,92.30
2022-11-16T06:59:36.046Z,92.10
2022-11-16T07:00:10.237Z,92.00
2022-11-16T07:00:42.849Z,92.30
2022-11-16T07:01:16.107Z,92.00
2022-11-16T07:01:49.999Z,92.90
2022-11-16T07:02:22.765Z,92.00
2022-11-16T07:02:55.000Z,92.50
2022-11-16T07:03:27.485Z,92.10
2022-11-16T07:03:59.336Z,92.50
2022-11-16T07:04:34.107Z,92.10
2022-11-16T07:05:07.364Z,92.10
2022-11-16T07:05:41.883Z,92.00
2022-11-16T07:06:18.268Z,92.30
2022-11-16T07:06:51.155Z,93.00
2022-11-16T07:07:23.380Z,92.90
2022-11-16T07:07:56.045Z,92.40
2022-11-16T07:08:28.942Z,92.40
2022-11-16T07:09:01.261Z,92.10
2022-11-16T07:09:35.872Z,92.60
2022-11-16T07:10:08.337Z,92.80
2022-11-16T07:10:40.900Z,92.30
2022-11-16T07:11:13.135Z,92.60
2022-11-16T07:11:44.903Z,92.40
2022-11-16T07:12:18.081Z,93.30
2022-11-16T07:12:49.943Z,93.00
2022-11-16T07:13:24.464Z,92.70
2022-11-16T07:13:56.746Z,92.30
2022-11-16T07:14:28.555Z,92.00
2022-11-16T07:15:01.645Z,92.10
2022-11-16T07:15:35.592Z,92.10
2022-11-16T07:16:10.145Z,93.20
2022-11-16T07:16:44.811Z,92.10
2022-11-16T07:17:16.578Z,92.10
2022-11-16T07:17:48.392Z,92.60
2022-11-16T07:18:20.164Z,92.30
2022-11-16T07:18:52.769Z,92.40
2022-11-16T07:19:24.537Z,92.30
2022-11-16T07:19:56.346Z,92.30
2022-11-16T07:20:28.157Z,92.60
2022-11-16T07:21:04.825Z,92.30
2022-11-16T07:21:39.740Z,92.30
2022-11-16T07:22:17.240Z,92.30
2022-11-16T07:22:49.047Z,92.40
2022-11-16T07:23:22.801Z,92.30
2022-11-16T07:23:55.337Z,92.10
2022-11-16T07:24:27.665Z,92.50
2022-11-16T07:24:59.444Z,92.30
2022-11-16T07:25:33.452Z,92.00
2022-11-16T07:26:07.608Z,92.30
2022-11-16T07:26:45.151Z,92.20
2022-11-16T07:27:21.593Z,92.30
2022-11-16T07:27:58.017Z,92.10
2022-11-16T07:28:30.067Z,92.70
2022-11-16T07:29:02.400Z,92.20
2022-11-16T07:29:35.101Z,92.00
2022-11-16T07:30:18.903Z,92.10
2022-11-16T07:31:11.655Z,92.10
2022-11-16T07:31:43.485Z,92.30
2022-11-16T07:32:50.573Z,92.30
2022-11-16T07:33:28.661Z,92.70
2022-11-16T07:34:20.681Z,92.40
2022-11-16T07:34:59.632Z,92.30
2022-11-16T07:35:32.098Z,92.30
2022-11-16T07:36:09.873Z,92.30
2022-11-16T07:36:42.734Z,92.20
2022-11-16T07:37:15.605Z,92.10
2022-11-16T07:37:48.439Z,92.10
2022-11-16T07:38:20.748Z,92.10
2022-11-16T07:38:52.618Z,92.10
2022-11-16T07:39:24.435Z,92.40
2022-11-16T07:39:56.197Z,92.80
2022-11-16T07:40:29.044Z,92.50
2022-11-16T07:41:09.173Z,92.40
2022-11-16T07:41:44.305Z,92.30
2022-11-16T07:42:29.129Z,92.10
2022-11-16T07:43:13.667Z,92.10
2022-11-16T07:44:17.477Z,93.20
2022-11-16T07:44:58.965Z,92.60
2022-11-16T07:45:30.769Z,92.30
2022-11-16T07:47:06.085Z,92.40
2022-11-16T07:47:39.660Z,92.40
2022-11-16T07:48:14.560Z,92.20
2022-11-16T07:49:24.608Z,92.20
2022-11-16T07:49:59.799Z,92.50
2022-11-16T07:50:32.972Z,92.70
2022-11-16T07:51:12.653Z,92.70
2022-11-16T07:51:49.709Z,92.40
2022-11-16T07:52:40.054Z,92.90
2022-11-16T07:53:15.428Z,92.20
2022-11-16T07:53:47.210Z,92.20
2022-11-16T07:54:19.012Z,92.40
2022-11-16T07:54:50.725Z,92.20
2022-11-16T07:55:25.556Z,92.20
2022-11-16T07:55:57.765Z,92.40
2022-11-16T07:56:31.314Z,92.40
2022-11-16T07:57:04.191Z,92.10
2022-11-16T07:57:36.040Z,92.40
2022-11-16T07:58:11.052Z,92.40
2022-11-16T07:58:43.711Z,92.40
2022-11-16T07:59:15.471Z,92.40
2022-11-16T07:59:49.678Z,92.40
2022-11-16T08:00:22.429Z,92.20
2022-11-16T08:01:11.444Z,92.40
2022-11-16T08:01:43.301Z,92.40
2022-11-16T08:02:16.317Z,92.40